sensor_id;sensor_type;location;lat;lon;timestamp;temperature;humidity
23618;DHT22;18207;32.078;34.818;2022-11-20T00:01:43;25.40;33.10
23618;DHT22;18207;32.078;34.818;2022-11-20T00:04:14;25.40;33.10
23618;DHT22;18207;32.078;34.818;2022-11-20T00:06:44;25.40;33.10
23618;DHT22;18207;32.078;34.818;2022-11-20T00:09:16;25.40;33.10
23618;DHT22;18207;32.078;34.818;2022-11-20T00:11:47;25.40;33.10
23618;DHT22;18207;32.078;34.818;2022-11-20T00:14:18;25.30;33.00
23618;DHT22;18207;32.078;34.818;2022-11-20T00:16:50;25.30;33.00
23618;DHT22;18207;32.078;34.818;2022-11-20T00:19:21;25.30;33.00
23618;DHT22;18207;32.078;34.818;2022-11-20T00:21:51;25.30;33.00
23618;DHT22;18207;32.078;34.818;2022-11-20T00:24:23;25.30;33.00
23618;DHT22;18207;32.078;34.818;2022-11-20T00:26:53;25.30;33.00
23618;DHT22;18207;32.078;34.818;2022-11-20T00:29:23;25.30;33.00
23618;DHT22;18207;32.078;34.818;2022-11-20T00:31:56;25.30;33.00
23618;DHT22;18207;32.078;34.818;2022-11-20T00:34:26;25.30;33.00
23618;DHT22;18207;32.078;34.818;2022-11-20T00:36:57;25.30;33.10
23618;DHT22;18207;32.078;34.818;2022-11-20T00:39:29;25.30;33.10
23618;DHT22;18207;32.078;34.818;2022-11-20T00:42:00;25.20;33.10
23618;DHT22;18207;32.078;34.818;2022-11-20T00:44:31;25.20;33.10
23618;DHT22;18207;32.078;34.818;2022-11-20T00:47:02;25.20;33.10
23618;DHT22;18207;32.078;34.818;2022-11-20T00:49:33;25.20;33.10
23618;DHT22;18207;32.078;34.818;2022-11-20T00:52:04;25.20;33.10
23618;DHT22;18207;32.078;34.818;2022-11-20T00:54:36;25.20;33.10
23618;DHT22;18207;32.078;34.818;2022-11-20T00:57:09;25.20;33.00
23618;DHT22;18207;32.078;34.818;2022-11-20T00:59:40;25.20;33.00
23618;DHT22;18207;32.078;34.818;2022-11-20T01:02:13;25.20;33.00
23618;DHT22;18207;32.078;34.818;2022-11-20T01:04:43;25.20;33.00
23618;DHT22;18207;32.078;34.818;2022-11-20T01:07:14;25.20;33.10
23618;DHT22;18207;32.078;34.818;2022-11-20T01:09:45;25.10;33.00
23618;DHT22;18207;32.078;34.818;2022-11-20T01:12:15;25.10;33.00
23618;DHT22;18207;32.078;34.818;2022-11-20T01:14:57;25.10;33.00
23618;DHT22;18207;32.078;34.818;2022-11-20T01:17:31;25.10;33.00
23618;DHT22;18207;32.078;34.818;2022-11-20T01:20:02;25.10;33.00
23618;DHT22;18207;32.078;34.818;2022-11-20T01:22:33;25.10;33.00
23618;DHT22;18207;32.078;34.818;2022-11-20T01:25:04;25.10;33.00
23618;DHT22;18207;32.078;34.818;2022-11-20T01:27:35;25.00;33.00
23618;DHT22;18207;32.078;34.818;2022-11-20T01:30:06;25.00;33.00
23618;DHT22;18207;32.078;34.818;2022-11-20T01:32:39;25.00;33.10
23618;DHT22;18207;32.078;34.818;2022-11-20T01:35:09;25.00;33.00
23618;DHT22;18207;32.078;34.818;2022-11-20T01:37:39;25.00;33.00
23618;DHT22;18207;32.078;34.818;2022-11-20T01:40:11;24.90;33.00
23618;DHT22;18207;32.078;34.818;2022-11-20T01:42:47;24.90;33.00
23618;DHT22;18207;32.078;34.818;2022-11-20T01:46:14;24.90;33.00
23618;DHT22;18207;32.078;34.818;2022-11-20T01:48:51;24.90;32.90
23618;DHT22;18207;32.078;34.818;2022-11-20T01:51:29;24.90;32.90
23618;DHT22;18207;32.078;34.818;2022-11-20T01:54:08;24.90;32.90
23618;DHT22;18207;32.078;34.818;2022-11-20T01:56:45;24.90;32.90
23618;DHT22;18207;32.078;34.818;2022-11-20T01:59:23;24.90;33.00
23618;DHT22;18207;32.078;34.818;2022-11-20T02:01:56;24.80;32.90
23618;DHT22;18207;32.078;34.818;2022-11-20T02:04:29;24.80;33.00
23618;DHT22;18207;32.078;34.818;2022-11-20T02:07:01;24.80;33.00
23618;DHT22;18207;32.078;34.818;2022-11-20T02:09:36;24.80;33.00
23618;DHT22;18207;32.078;34.818;2022-11-20T02:12:07;24.80;33.00
23618;DHT22;18207;32.078;34.818;2022-11-20T02:14:58;24.80;33.00
23618;DHT22;18207;32.078;34.818;2022-11-20T02:17:28;24.80;33.00
23618;DHT22;18207;32.078;34.818;2022-11-20T02:20:00;24.80;33.10
23618;DHT22;18207;32.078;34.818;2022-11-20T02:22:37;24.80;33.00
23618;DHT22;18207;32.078;34.818;2022-11-20T02:25:16;24.80;33.10
23618;DHT22;18207;32.078;34.818;2022-11-20T02:27:49;24.80;33.10
23618;DHT22;18207;32.078;34.818;2022-11-20T02:30:21;24.80;33.00
23618;DHT22;18207;32.078;34.818;2022-11-20T02:32:53;24.80;33.10
23618;DHT22;18207;32.078;34.818;2022-11-20T02:35:42;24.70;32.90
23618;DHT22;18207;32.078;34.818;2022-11-20T02:38:17;24.70;32.90
23618;DHT22;18207;32.078;34.818;2022-11-20T02:40:51;24.70;32.80
23618;DHT22;18207;32.078;34.818;2022-11-20T02:43:23;24.60;32.70
23618;DHT22;18207;32.078;34.818;2022-11-20T02:45:55;24.60;32.70
23618;DHT22;18207;32.078;34.818;2022-11-20T02:48:26;24.60;32.70
23618;DHT22;18207;32.078;34.818;2022-11-20T02:51:00;24.50;32.70
23618;DHT22;18207;32.078;34.818;2022-11-20T02:53:31;24.50;32.70
23618;DHT22;18207;32.078;34.818;2022-11-20T02:56:06;24.50;32.70
23618;DHT22;18207;32.078;34.818;2022-11-20T02:58:37;24.40;32.60
23618;DHT22;18207;32.078;34.818;2022-11-20T03:01:08;24.40;32.60
23618;DHT22;18207;32.078;34.818;2022-11-20T03:03:38;24.40;32.60
23618;DHT22;18207;32.078;34.818;2022-11-20T03:06:09;24.40;32.70
23618;DHT22;18207;32.078;34.818;2022-11-20T03:08:40;24.40;32.70
23618;DHT22;18207;32.078;34.818;2022-11-20T03:11:13;24.30;32.60
23618;DHT22;18207;32.078;34.818;2022-11-20T03:13:44;24.30;32.60
23618;DHT22;18207;32.078;34.818;2022-11-20T03:16:18;24.30;32.70
23618;DHT22;18207;32.078;34.818;2022-11-20T03:18:52;24.30;32.70
23618;DHT22;18207;32.078;34.818;2022-11-20T03:21:23;24.30;32.70
23618;DHT22;18207;32.078;34.818;2022-11-20T03:23:53;24.30;32.80
23618;DHT22;18207;32.078;34.818;2022-11-20T03:26:26;24.30;32.80
23618;DHT22;18207;32.078;34.818;2022-11-20T03:29:00;24.30;32.90
23618;DHT22;18207;32.078;34.818;2022-11-20T03:31:33;24.30;32.90
23618;DHT22;18207;32.078;34.818;2022-11-20T03:34:04;24.30;32.80
23618;DHT22;18207;32.078;34.818;2022-11-20T03:36:38;24.30;32.90
23618;DHT22;18207;32.078;34.818;2022-11-20T03:39:08;24.30;32.80
23618;DHT22;18207;32.078;34.818;2022-11-20T03:41:41;24.30;32.90
23618;DHT22;18207;32.078;34.818;2022-11-20T03:44:12;24.30;32.80
23618;DHT22;18207;32.078;34.818;2022-11-20T03:46:43;24.40;32.90
23618;DHT22;18207;32.078;34.818;2022-11-20T03:49:14;24.30;32.80
23618;DHT22;18207;32.078;34.818;2022-11-20T03:51:46;24.40;32.90
23618;DHT22;18207;32.078;34.818;2022-11-20T03:54:16;24.40;32.90
23618;DHT22;18207;32.078;34.818;2022-11-20T03:56:48;24.40;32.80
23618;DHT22;18207;32.078;34.818;2022-11-20T03:59:19;24.30;32.70
23618;DHT22;18207;32.078;34.818;2022-11-20T04:01:50;24.40;32.80
23618;DHT22;18207;32.078;34.818;2022-11-20T04:04:20;24.30;32.70
23618;DHT22;18207;32.078;34.818;2022-11-20T04:06:50;24.30;32.60
23618;DHT22;18207;32.078;34.818;2022-11-20T04:09:21;24.30;32.60
23618;DHT22;18207;32.078;34.818;2022-11-20T04:11:53;24.30;32.60
23618;DHT22;18207;32.078;34.818;2022-11-20T04:14:23;24.30;32.50
23618;DHT22;18207;32.078;34.818;2022-11-20T04:16:53;24.20;32.50
23618;DHT22;18207;32.078;34.818;2022-11-20T04:19:24;24.20;32.50
23618;DHT22;18207;32.078;34.818;2022-11-20T04:21:54;24.20;32.50
23618;DHT22;18207;32.078;34.818;2022-11-20T04:24:25;24.20;32.60
23618;DHT22;18207;32.078;34.818;2022-11-20T04:26:58;24.20;32.60
23618;DHT22;18207;32.078;34.818;2022-11-20T04:29:28;24.20;33.30
23618;DHT22;18207;32.078;34.818;2022-11-20T04:31:59;24.20;32.70
23618;DHT22;18207;32.078;34.818;2022-11-20T04:34:30;24.20;32.70
23618;DHT22;18207;32.078;34.818;2022-11-20T04:37:01;24.20;33.30
23618;DHT22;18207;32.078;34.818;2022-11-20T04:39:31;24.20;32.70
23618;DHT22;18207;32.078;34.818;2022-11-20T04:42:05;24.20;32.70
23618;DHT22;18207;32.078;34.818;2022-11-20T04:44:59;24.20;32.70
23618;DHT22;18207;32.078;34.818;2022-11-20T04:47:30;24.20;32.70
23618;DHT22;18207;32.078;34.818;2022-11-20T04:50:01;24.20;32.70
23618;DHT22;18207;32.078;34.818;2022-11-20T04:52:32;24.20;32.80
23618;DHT22;18207;32.078;34.818;2022-11-20T04:55:03;24.20;32.90
23618;DHT22;18207;32.078;34.818;2022-11-20T04:57:35;24.30;33.10
23618;DHT22;18207;32.078;34.818;2022-11-20T05:00:06;24.40;33.40
23618;DHT22;18207;32.078;34.818;2022-11-20T05:02:38;24.60;33.70
23618;DHT22;18207;32.078;34.818;2022-11-20T05:05:08;24.80;33.80
23618;DHT22;18207;32.078;34.818;2022-11-20T05:07:39;25.00;33.80
23618;DHT22;18207;32.078;34.818;2022-11-20T05:10:09;25.20;33.70
23618;DHT22;18207;32.078;34.818;2022-11-20T05:12:43;25.40;33.70
23618;DHT22;18207;32.078;34.818;2022-11-20T05:15:17;25.60;33.50
23618;DHT22;18207;32.078;34.818;2022-11-20T05:17:50;25.80;33.30
23618;DHT22;18207;32.078;34.818;2022-11-20T05:20:21;25.90;33.00
23618;DHT22;18207;32.078;34.818;2022-11-20T05:22:52;26.00;32.70
23618;DHT22;18207;32.078;34.818;2022-11-20T05:25:22;26.10;32.60
23618;DHT22;18207;32.078;34.818;2022-11-20T05:27:55;26.10;32.50
23618;DHT22;18207;32.078;34.818;2022-11-20T05:30:26;26.00;32.40
23618;DHT22;18207;32.078;34.818;2022-11-20T05:32:57;26.00;32.30
23618;DHT22;18207;32.078;34.818;2022-11-20T05:35:27;26.00;32.30
23618;DHT22;18207;32.078;34.818;2022-11-20T05:37:57;26.10;32.40
23618;DHT22;18207;32.078;34.818;2022-11-20T05:40:28;26.10;32.50
23618;DHT22;18207;32.078;34.818;2022-11-20T05:43:01;26.10;32.70
23618;DHT22;18207;32.078;34.818;2022-11-20T05:45:31;26.20;32.70
23618;DHT22;18207;32.078;34.818;2022-11-20T05:48:02;26.30;32.90
23618;DHT22;18207;32.078;34.818;2022-11-20T05:50:33;26.40;33.20
23618;DHT22;18207;32.078;34.818;2022-11-20T05:53:03;26.70;33.40
23618;DHT22;18207;32.078;34.818;2022-11-20T05:55:33;27.00;33.60
23618;DHT22;18207;32.078;34.818;2022-11-20T05:58:06;27.30;33.70
23618;DHT22;18207;32.078;34.818;2022-11-20T06:00:36;27.70;33.60
23618;DHT22;18207;32.078;34.818;2022-11-20T06:03:06;28.00;33.70
23618;DHT22;18207;32.078;34.818;2022-11-20T06:05:36;28.40;33.60
23618;DHT22;18207;32.078;34.818;2022-11-20T06:08:07;28.80;33.40
23618;DHT22;18207;32.078;34.818;2022-11-20T06:10:37;29.20;33.20
23618;DHT22;18207;32.078;34.818;2022-11-20T06:13:10;29.50;32.80
23618;DHT22;18207;32.078;34.818;2022-11-20T06:15:40;29.80;32.60
23618;DHT22;18207;32.078;34.818;2022-11-20T06:18:11;30.10;32.30
23618;DHT22;18207;32.078;34.818;2022-11-20T06:20:42;30.40;32.20
23618;DHT22;18207;32.078;34.818;2022-11-20T06:23:13;30.70;32.00
23618;DHT22;18207;32.078;34.818;2022-11-20T06:25:43;31.00;32.50
23618;DHT22;18207;32.078;34.818;2022-11-20T06:28:18;31.20;31.50
23618;DHT22;18207;32.078;34.818;2022-11-20T06:30:49;31.50;31.30
23618;DHT22;18207;32.078;34.818;2022-11-20T06:33:20;31.80;31.20
23618;DHT22;18207;32.078;34.818;2022-11-20T06:35:51;32.00;31.00
23618;DHT22;18207;32.078;34.818;2022-11-20T06:38:32;32.30;30.70
23618;DHT22;18207;32.078;34.818;2022-11-20T06:41:03;32.50;30.30
23618;DHT22;18207;32.078;34.818;2022-11-20T06:43:36;32.70;30.10
23618;DHT22;18207;32.078;34.818;2022-11-20T06:46:08;32.90;30.00
23618;DHT22;18207;32.078;34.818;2022-11-20T06:48:40;33.00;29.80
23618;DHT22;18207;32.078;34.818;2022-11-20T06:51:11;33.20;29.70
23618;DHT22;18207;32.078;34.818;2022-11-20T06:53:41;33.40;29.70
23618;DHT22;18207;32.078;34.818;2022-11-20T06:56:12;33.60;29.60
23618;DHT22;18207;32.078;34.818;2022-11-20T06:58:44;33.70;29.60
23618;DHT22;18207;32.078;34.818;2022-11-20T07:01:15;34.00;29.40
23618;DHT22;18207;32.078;34.818;2022-11-20T07:03:48;34.10;29.20
23618;DHT22;18207;32.078;34.818;2022-11-20T07:06:20;34.30;29.10
23618;DHT22;18207;32.078;34.818;2022-11-20T07:08:51;34.50;29.10
23618;DHT22;18207;32.078;34.818;2022-11-20T07:11:22;34.70;28.90
23618;DHT22;18207;32.078;34.818;2022-11-20T07:13:54;34.80;28.80
23618;DHT22;18207;32.078;34.818;2022-11-20T07:16:27;35.10;28.70
23618;DHT22;18207;32.078;34.818;2022-11-20T07:18:57;35.20;28.50
23618;DHT22;18207;32.078;34.818;2022-11-20T07:21:28;35.40;28.20
23618;DHT22;18207;32.078;34.818;2022-11-20T07:23:58;35.50;27.90
23618;DHT22;18207;32.078;34.818;2022-11-20T07:26:28;35.60;27.70
23618;DHT22;18207;32.078;34.818;2022-11-20T07:29:01;35.70;27.40
23618;DHT22;18207;32.078;34.818;2022-11-20T07:31:31;35.70;27.10
23618;DHT22;18207;32.078;34.818;2022-11-20T07:34:02;35.80;27.00
23618;DHT22;18207;32.078;34.818;2022-11-20T07:36:32;35.90;27.00
23618;DHT22;18207;32.078;34.818;2022-11-20T07:39:03;36.00;27.10
23618;DHT22;18207;32.078;34.818;2022-11-20T07:41:34;36.00;26.80
23618;DHT22;18207;32.078;34.818;2022-11-20T07:44:07;36.10;26.60
23618;DHT22;18207;32.078;34.818;2022-11-20T07:46:37;36.20;26.20
23618;DHT22;18207;32.078;34.818;2022-11-20T07:49:08;36.30;26.10
23618;DHT22;18207;32.078;34.818;2022-11-20T07:51:39;36.40;26.00
23618;DHT22;18207;32.078;34.818;2022-11-20T07:54:09;36.50;26.00
23618;DHT22;18207;32.078;34.818;2022-11-20T07:56:40;36.50;26.00
23618;DHT22;18207;32.078;34.818;2022-11-20T07:59:12;36.70;26.10
23618;DHT22;18207;32.078;34.818;2022-11-20T08:01:43;36.90;26.00
23618;DHT22;18207;32.078;34.818;2022-11-20T08:04:13;37.20;26.00
23618;DHT22;18207;32.078;34.818;2022-11-20T08:06:44;37.40;26.00
23618;DHT22;18207;32.078;34.818;2022-11-20T08:09:14;37.60;25.80
23618;DHT22;18207;32.078;34.818;2022-11-20T08:11:46;37.80;25.60
23618;DHT22;18207;32.078;34.818;2022-11-20T08:14:35;38.00;25.40
23618;DHT22;18207;32.078;34.818;2022-11-20T08:17:06;38.10;25.00
23618;DHT22;18207;32.078;34.818;2022-11-20T08:19:36;38.10;24.70
23618;DHT22;18207;32.078;34.818;2022-11-20T08:22:07;38.10;24.40
23618;DHT22;18207;32.078;34.818;2022-11-20T08:24:37;38.00;24.30
23618;DHT22;18207;32.078;34.818;2022-11-20T08:27:07;37.90;24.20
23618;DHT22;18207;32.078;34.818;2022-11-20T08:29:40;37.80;24.00
23618;DHT22;18207;32.078;34.818;2022-11-20T08:32:11;37.60;23.80
23618;DHT22;18207;32.078;34.818;2022-11-20T08:34:41;37.50;23.60
23618;DHT22;18207;32.078;34.818;2022-11-20T08:37:12;37.30;23.40
23618;DHT22;18207;32.078;34.818;2022-11-20T08:39:50;37.00;23.00
23618;DHT22;18207;32.078;34.818;2022-11-20T08:42:21;36.70;22.90
23618;DHT22;18207;32.078;34.818;2022-11-20T08:44:54;36.50;22.70
23618;DHT22;18207;32.078;34.818;2022-11-20T08:47:28;36.20;22.60
23618;DHT22;18207;32.078;34.818;2022-11-20T08:49:59;36.00;22.70
23618;DHT22;18207;32.078;34.818;2022-11-20T08:52:30;35.70;22.70
23618;DHT22;18207;32.078;34.818;2022-11-20T08:55:07;35.40;22.70
23618;DHT22;18207;32.078;34.818;2022-11-20T08:57:38;35.10;22.70
23618;DHT22;18207;32.078;34.818;2022-11-20T09:00:19;34.90;22.70
23618;DHT22;18207;32.078;34.818;2022-11-20T09:02:51;34.60;22.60
23618;DHT22;18207;32.078;34.818;2022-11-20T09:05:24;34.40;22.70
23618;DHT22;18207;32.078;34.818;2022-11-20T09:07:57;34.20;22.60
23618;DHT22;18207;32.078;34.818;2022-11-20T09:10:30;34.00;22.60
23618;DHT22;18207;32.078;34.818;2022-11-20T09:13:01;33.80;22.70
23618;DHT22;18207;32.078;34.818;2022-11-20T09:15:36;33.70;22.80
23618;DHT22;18207;32.078;34.818;2022-11-20T09:18:12;33.60;22.80
23618;DHT22;18207;32.078;34.818;2022-11-20T09:20:46;33.40;22.90
23618;DHT22;18207;32.078;34.818;2022-11-20T09:23:17;33.30;22.90
23618;DHT22;18207;32.078;34.818;2022-11-20T09:25:47;33.20;23.00
23618;DHT22;18207;32.078;34.818;2022-11-20T09:28:18;33.10;23.00
23618;DHT22;18207;32.078;34.818;2022-11-20T09:30:50;33.00;23.00
23618;DHT22;18207;32.078;34.818;2022-11-20T09:33:21;32.90;23.00
23618;DHT22;18207;32.078;34.818;2022-11-20T09:35:50;32.80;23.00
23618;DHT22;18207;32.078;34.818;2022-11-20T09:38:21;32.80;23.10
23618;DHT22;18207;32.078;34.818;2022-11-20T09:40:57;32.60;23.10
23618;DHT22;18207;32.078;34.818;2022-11-20T09:43:45;32.50;23.10
23618;DHT22;18207;32.078;34.818;2022-11-20T09:46:29;32.50;23.00
23618;DHT22;18207;32.078;34.818;2022-11-20T09:49:23;32.40;23.10
23618;DHT22;18207;32.078;34.818;2022-11-20T09:52:01;32.30;23.30
23618;DHT22;18207;32.078;34.818;2022-11-20T09:54:45;32.20;23.20
23618;DHT22;18207;32.078;34.818;2022-11-20T09:57:20;32.10;23.20
23618;DHT22;18207;32.078;34.818;2022-11-20T09:59:56;32.10;23.20
23618;DHT22;18207;32.078;34.818;2022-11-20T10:02:42;32.00;23.30
23618;DHT22;18207;32.078;34.818;2022-11-20T10:05:20;31.90;23.30
23618;DHT22;18207;32.078;34.818;2022-11-20T10:08:14;31.80;23.40
23618;DHT22;18207;32.078;34.818;2022-11-20T10:10:54;31.80;23.40
23618;DHT22;18207;32.078;34.818;2022-11-20T10:13:40;31.70;23.30
23618;DHT22;18207;32.078;34.818;2022-11-20T10:16:26;31.60;23.30
23618;DHT22;18207;32.078;34.818;2022-11-20T10:19:30;31.60;23.40
23618;DHT22;18207;32.078;34.818;2022-11-20T10:22:20;31.50;23.30
23618;DHT22;18207;32.078;34.818;2022-11-20T10:25:06;31.50;23.50
23618;DHT22;18207;32.078;34.818;2022-11-20T10:28:19;31.40;23.40
23618;DHT22;18207;32.078;34.818;2022-11-20T10:31:02;31.30;23.50
23618;DHT22;18207;32.078;34.818;2022-11-20T10:33:36;31.30;23.60
23618;DHT22;18207;32.078;34.818;2022-11-20T10:36:36;31.30;23.60
23618;DHT22;18207;32.078;34.818;2022-11-20T10:39:18;31.30;23.60
23618;DHT22;18207;32.078;34.818;2022-11-20T10:41:54;31.20;23.60
23618;DHT22;18207;32.078;34.818;2022-11-20T10:44:41;31.20;23.70
23618;DHT22;18207;32.078;34.818;2022-11-20T10:47:35;31.10;23.50
23618;DHT22;18207;32.078;34.818;2022-11-20T10:50:11;31.10;23.60
23618;DHT22;18207;32.078;34.818;2022-11-20T10:52:58;31.10;23.60
23618;DHT22;18207;32.078;34.818;2022-11-20T10:55:42;31.10;23.60
23618;DHT22;18207;32.078;34.818;2022-11-20T10:58:25;31.10;23.70
23618;DHT22;18207;32.078;34.818;2022-11-20T11:01:04;31.10;23.70
23618;DHT22;18207;32.078;34.818;2022-11-20T11:03:35;31.00;23.80
23618;DHT22;18207;32.078;34.818;2022-11-20T11:06:10;31.00;23.80
23618;DHT22;18207;32.078;34.818;2022-11-20T11:08:53;30.90;23.80
23618;DHT22;18207;32.078;34.818;2022-11-20T11:11:28;30.90;23.70
23618;DHT22;18207;32.078;34.818;2022-11-20T11:14:07;31.00;23.80
23618;DHT22;18207;32.078;34.818;2022-11-20T11:16:50;30.90;23.80
23618;DHT22;18207;32.078;34.818;2022-11-20T11:19:22;30.90;23.70
23618;DHT22;18207;32.078;34.818;2022-11-20T11:21:55;30.90;23.80
23618;DHT22;18207;32.078;34.818;2022-11-20T11:24:29;30.90;23.90
23618;DHT22;18207;32.078;34.818;2022-11-20T11:27:12;30.90;23.90
23618;DHT22;18207;32.078;34.818;2022-11-20T11:29:48;30.90;23.90
23618;DHT22;18207;32.078;34.818;2022-11-20T11:32:20;30.90;24.00
23618;DHT22;18207;32.078;34.818;2022-11-20T11:35:00;30.90;23.90
23618;DHT22;18207;32.078;34.818;2022-11-20T11:37:34;30.80;23.80
23618;DHT22;18207;32.078;34.818;2022-11-20T11:40:11;30.90;24.00
23618;DHT22;18207;32.078;34.818;2022-11-20T11:42:54;30.80;23.80
23618;DHT22;18207;32.078;34.818;2022-11-20T11:45:27;30.80;23.80
23618;DHT22;18207;32.078;34.818;2022-11-20T11:47:58;30.80;23.80
23618;DHT22;18207;32.078;34.818;2022-11-20T11:50:33;30.80;23.80
23618;DHT22;18207;32.078;34.818;2022-11-20T11:53:11;30.70;23.80
23618;DHT22;18207;32.078;34.818;2022-11-20T11:55:51;30.80;23.80
23618;DHT22;18207;32.078;34.818;2022-11-20T11:58:41;30.70;23.80
23618;DHT22;18207;32.078;34.818;2022-11-20T12:01:26;30.70;24.30
23618;DHT22;18207;32.078;34.818;2022-11-20T12:04:08;30.70;23.80
23618;DHT22;18207;32.078;34.818;2022-11-20T12:06:51;30.70;23.90
23618;DHT22;18207;32.078;34.818;2022-11-20T12:09:53;30.70;23.90
23618;DHT22;18207;32.078;34.818;2022-11-20T12:12:32;30.70;23.90
23618;DHT22;18207;32.078;34.818;2022-11-20T12:15:11;30.70;23.90
23618;DHT22;18207;32.078;34.818;2022-11-20T12:17:53;30.70;23.90
23618;DHT22;18207;32.078;34.818;2022-11-20T12:20:28;30.70;24.00
23618;DHT22;18207;32.078;34.818;2022-11-20T12:23:09;30.70;24.00
23618;DHT22;18207;32.078;34.818;2022-11-20T12:25:51;30.70;23.90
23618;DHT22;18207;32.078;34.818;2022-11-20T12:28:58;30.70;23.90
23618;DHT22;18207;32.078;34.818;2022-11-20T12:31:52;30.70;23.80
23618;DHT22;18207;32.078;34.818;2022-11-20T12:34:47;30.70;23.90
23618;DHT22;18207;32.078;34.818;2022-11-20T12:37:37;30.70;23.80
23618;DHT22;18207;32.078;34.818;2022-11-20T12:40:38;30.60;23.80
23618;DHT22;18207;32.078;34.818;2022-11-20T12:43:19;30.60;23.80
23618;DHT22;18207;32.078;34.818;2022-11-20T12:46:29;30.60;23.80
23618;DHT22;18207;32.078;34.818;2022-11-20T12:49:27;30.60;23.70
23618;DHT22;18207;32.078;34.818;2022-11-20T12:52:38;30.60;23.70
23618;DHT22;18207;32.078;34.818;2022-11-20T12:55:24;30.60;23.70
23618;DHT22;18207;32.078;34.818;2022-11-20T12:58:10;30.60;23.80
23618;DHT22;18207;32.078;34.818;2022-11-20T13:00:55;30.60;23.80
23618;DHT22;18207;32.078;34.818;2022-11-20T13:03:39;30.50;23.70
23618;DHT22;18207;32.078;34.818;2022-11-20T13:06:16;30.50;23.60
23618;DHT22;18207;32.078;34.818;2022-11-20T13:08:52;30.50;23.60
23618;DHT22;18207;32.078;34.818;2022-11-20T13:11:31;30.50;23.70
23618;DHT22;18207;32.078;34.818;2022-11-20T13:14:21;30.50;23.60
23618;DHT22;18207;32.078;34.818;2022-11-20T13:17:08;30.50;23.60
23618;DHT22;18207;32.078;34.818;2022-11-20T13:19:54;30.50;23.60
23618;DHT22;18207;32.078;34.818;2022-11-20T13:22:29;30.50;23.60
23618;DHT22;18207;32.078;34.818;2022-11-20T13:25:22;30.40;23.60
23618;DHT22;18207;32.078;34.818;2022-11-20T13:27:54;30.50;23.60
23618;DHT22;18207;32.078;34.818;2022-11-20T13:30:27;30.40;23.60
23618;DHT22;18207;32.078;34.818;2022-11-20T13:33:02;30.50;23.60
23618;DHT22;18207;32.078;34.818;2022-11-20T13:35:42;30.40;23.60
23618;DHT22;18207;32.078;34.818;2022-11-20T13:38:14;30.40;23.60
23618;DHT22;18207;32.078;34.818;2022-11-20T13:40:52;30.40;23.60
23618;DHT22;18207;32.078;34.818;2022-11-20T13:43:33;30.40;23.60
23618;DHT22;18207;32.078;34.818;2022-11-20T13:46:08;30.40;23.70
23618;DHT22;18207;32.078;34.818;2022-11-20T13:48:44;30.40;23.70
23618;DHT22;18207;32.078;34.818;2022-11-20T13:51:28;30.40;23.70
23618;DHT22;18207;32.078;34.818;2022-11-20T13:54:44;30.40;23.60
23618;DHT22;18207;32.078;34.818;2022-11-20T14:00:50;30.30;23.60
23618;DHT22;18207;32.078;34.818;2022-11-20T14:03:29;30.30;23.60
23618;DHT22;18207;32.078;34.818;2022-11-20T14:06:27;30.30;24.10
23618;DHT22;18207;32.078;34.818;2022-11-20T14:09:00;30.30;23.70
23618;DHT22;18207;32.078;34.818;2022-11-20T14:11:31;30.30;23.70
23618;DHT22;18207;32.078;34.818;2022-11-20T14:14:04;30.20;23.60
23618;DHT22;18207;32.078;34.818;2022-11-20T14:16:44;30.20;23.70
23618;DHT22;18207;32.078;34.818;2022-11-20T14:19:26;30.20;23.70
23618;DHT22;18207;32.078;34.818;2022-11-20T14:22:16;30.20;23.70
23618;DHT22;18207;32.078;34.818;2022-11-20T14:25:00;30.20;23.70
23618;DHT22;18207;32.078;34.818;2022-11-20T14:27:35;30.20;23.80
23618;DHT22;18207;32.078;34.818;2022-11-20T14:30:14;30.10;23.70
23618;DHT22;18207;32.078;34.818;2022-11-20T14:32:46;30.10;23.70
23618;DHT22;18207;32.078;34.818;2022-11-20T14:35:23;30.10;23.70
23618;DHT22;18207;32.078;34.818;2022-11-20T14:37:57;30.10;23.80
23618;DHT22;18207;32.078;34.818;2022-11-20T14:40:30;30.10;23.80
23618;DHT22;18207;32.078;34.818;2022-11-20T14:43:20;30.10;24.00
23618;DHT22;18207;32.078;34.818;2022-11-20T14:45:57;30.10;23.90
23618;DHT22;18207;32.078;34.818;2022-11-20T14:48:32;30.00;24.00
23618;DHT22;18207;32.078;34.818;2022-11-20T14:51:09;30.00;24.00
23618;DHT22;18207;32.078;34.818;2022-11-20T14:53:43;30.00;24.00
23618;DHT22;18207;32.078;34.818;2022-11-20T14:56:21;29.90;23.90
23618;DHT22;18207;32.078;34.818;2022-11-20T14:58:56;29.90;23.90
23618;DHT22;18207;32.078;34.818;2022-11-20T15:01:28;29.90;24.00
23618;DHT22;18207;32.078;34.818;2022-11-20T15:04:04;29.90;24.00
23618;DHT22;18207;32.078;34.818;2022-11-20T15:06:37;29.90;24.10
23618;DHT22;18207;32.078;34.818;2022-11-20T15:09:15;29.90;24.20
23618;DHT22;18207;32.078;34.818;2022-11-20T15:11:54;29.80;24.10
23618;DHT22;18207;32.078;34.818;2022-11-20T15:14:28;29.80;24.10
23618;DHT22;18207;32.078;34.818;2022-11-20T15:17:00;29.80;24.20
23618;DHT22;18207;32.078;34.818;2022-11-20T15:19:31;29.80;24.60
23618;DHT22;18207;32.078;34.818;2022-11-20T15:22:01;29.80;24.10
23618;DHT22;18207;32.078;34.818;2022-11-20T15:24:33;29.80;24.10
23618;DHT22;18207;32.078;34.818;2022-11-20T15:27:04;29.70;24.10
23618;DHT22;18207;32.078;34.818;2022-11-20T15:29:35;29.70;24.10
23618;DHT22;18207;32.078;34.818;2022-11-20T15:32:07;29.60;24.00
23618;DHT22;18207;32.078;34.818;2022-11-20T15:34:40;29.60;24.00
23618;DHT22;18207;32.078;34.818;2022-11-20T15:37:10;29.60;24.00
23618;DHT22;18207;32.078;34.818;2022-11-20T15:39:43;29.60;24.00
23618;DHT22;18207;32.078;34.818;2022-11-20T15:42:14;29.60;24.00
23618;DHT22;18207;32.078;34.818;2022-11-20T15:44:44;29.60;24.00
23618;DHT22;18207;32.078;34.818;2022-11-20T15:47:15;29.50;24.00
23618;DHT22;18207;32.078;34.818;2022-11-20T15:49:46;29.50;24.00
23618;DHT22;18207;32.078;34.818;2022-11-20T15:52:16;29.50;24.00
23618;DHT22;18207;32.078;34.818;2022-11-20T15:54:48;29.50;24.00
23618;DHT22;18207;32.078;34.818;2022-11-20T15:57:19;29.50;24.00
23618;DHT22;18207;32.078;34.818;2022-11-20T15:59:49;29.40;24.00
23618;DHT22;18207;32.078;34.818;2022-11-20T16:02:19;29.40;24.00
23618;DHT22;18207;32.078;34.818;2022-11-20T16:04:49;29.40;24.00
23618;DHT22;18207;32.078;34.818;2022-11-20T16:07:19;29.40;23.90
23618;DHT22;18207;32.078;34.818;2022-11-20T16:09:54;29.40;23.90